Time;durP1;ratioP1;P1;durP2;ratioP2;P2;SDS_P1;SDS_P2;PMS_P1;PMS_P2;Temp;Humidity;BMP_temperature;BMP_pressure;BME280_temperature;BME280_humidity;BME280_pressure;Samples;Min_cycle;Max_cycle;Signal;HPM_P1;HPM_P2
2022/12/31 00:01:23;;;;;;;7.22;5.47;;;12.50;84.10;;;;;;2373294;56;21592;-48
2022/12/31 00:03:51;;;;;;;9.00;6.15;;;12.50;84.00;;;;;;2372819;56;21670;-50
2022/12/31 00:06:22;;;;;;;11.65;6.22;;;12.50;84.00;;;;;;2372628;56;21542;-49
2022/12/31 00:08:50;;;;;;;8.75;6.97;;;12.40;84.00;;;;;;2374805;56;21018;-52
2022/12/31 00:11:17;;;;;;;7.82;6.10;;;12.50;84.00;;;;;;2374554;56;21488;-50
2022/12/31 00:13:45;;;;;;;7.72;6.32;;;12.50;84.10;;;;;;2374984;56;21022;-53
2022/12/31 00:16:15;;;;;;;8.02;7.03;;;12.50;84.20;;;;;;2374205;56;21543;-52
2022/12/31 00:18:44;;;;;;;7.28;6.10;;;12.50;84.40;;;;;;2373161;56;21070;-52
2022/12/31 00:21:12;;;;;;;7.78;6.65;;;12.50;84.20;;;;;;2373136;56;21699;-52
2022/12/31 00:23:39;;;;;;;7.68;5.70;;;12.60;84.10;;;;;;2372339;56;21522;-48
2022/12/31 00:26:10;;;;;;;8.52;6.55;;;12.60;84.10;;;;;;2373243;56;21047;-52
2022/12/31 00:28:37;;;;;;;9.80;7.95;;;12.60;84.30;;;;;;2373689;56;21531;-51
2022/12/31 00:31:08;;;;;;;7.60;5.70;;;12.60;84.50;;;;;;2374108;56;21491;-50
2022/12/31 00:33:35;;;;;;;8.93;6.65;;;12.70;84.30;;;;;;2373452;56;21630;-51
2022/12/31 00:36:11;;;;;;;8.52;6.87;;;12.70;84.90;;;;;;2373950;56;21113;-53
2022/12/31 00:38:39;;;;;;;8.25;6.70;;;12.70;84.20;;;;;;2373322;56;21615;-49
2022/12/31 00:41:07;;;;;;;10.27;6.82;;;12.70;83.90;;;;;;2372866;56;22166;-52
2022/12/31 00:43:35;;;;;;;8.27;6.75;;;12.70;83.80;;;;;;2626344;52;21043;-48
2022/12/31 00:46:03;;;;;;;8.35;7.07;;;12.80;83.80;;;;;;2373650;56;21622;-53
2022/12/31 00:48:30;;;;;;;9.45;7.45;;;12.80;84.10;;;;;;2373022;56;21314;-52
2022/12/31 00:50:58;;;;;;;7.85;6.93;;;12.80;84.10;;;;;;2373127;56;21610;-51
2022/12/31 00:53:26;;;;;;;7.10;6.35;;;12.80;84.10;;;;;;2372986;56;22163;-49
2022/12/31 00:55:59;;;;;;;7.78;6.07;;;12.80;83.70;;;;;;2374140;56;21090;-48
2022/12/31 00:58:27;;;;;;;7.07;6.37;;;12.90;83.60;;;;;;2374652;56;21551;-51
2022/12/31 01:00:54;;;;;;;11.40;7.28;;;12.90;83.60;;;;;;2374859;56;21015;-50
2022/12/31 01:03:21;;;;;;;7.87;5.95;;;12.90;84.00;;;;;;2374421;56;21027;-53
2022/12/31 01:05:49;;;;;;;10.90;5.80;;;12.90;83.70;;;;;;2373696;56;21042;-50
2022/12/31 01:08:16;;;;;;;7.22;5.87;;;13.00;83.70;;;;;;2373147;56;21031;-53
2022/12/31 01:13:34;;;;;;;8.07;6.37;;;13.00;83.50;;;;;;2373703;56;20983;-51
2022/12/31 01:16:08;;;;;;;8.48;6.65;;;13.00;83.40;;;;;;2373644;56;21090;-51
2022/12/31 01:18:35;;;;;;;7.28;5.90;;;13.10;84.30;;;;;;2373263;56;21043;-50
2022/12/31 01:21:04;;;;;;;8.90;6.40;;;13.10;83.40;;;;;;2373740;56;21027;-50
2022/12/31 01:23:32;;;;;;;7.28;5.25;;;13.00;83.40;;;;;;2374149;56;21551;-51
2022/12/31 01:26:01;;;;;;;8.00;6.00;;;13.10;83.40;;;;;;2373610;56;21696;-50
2022/12/31 01:28:28;;;;;;;6.72;5.90;;;13.10;83.40;;;;;;2372594;56;21582;-49
2022/12/31 01:30:56;;;;;;;7.10;5.60;;;13.10;83.30;;;;;;2373262;56;22071;-49
2022/12/31 01:33:23;;;;;;;6.65;5.37;;;13.10;83.30;;;;;;2373211;56;21531;-52
2022/12/31 01:35:50;;;;;;;8.00;5.50;;;13.10;83.30;;;;;;2373519;56;21027;-48
2022/12/31 01:38:17;;;;;;;7.32;5.80;;;13.20;83.20;;;;;;2373317;56;21023;-48
2022/12/31 01:40:44;;;;;;;7.57;5.00;;;13.20;83.10;;;;;;2372918;56;21034;-49
2022/12/31 01:43:17;;;;;;;6.75;4.70;;;13.20;83.20;;;;;;2372469;56;21042;-53
2022/12/31 01:45:47;;;;;;;6.45;5.00;;;13.20;83.00;;;;;;2374585;56;21515;-48
2022/12/31 01:48:17;;;;;;;6.43;4.93;;;13.30;82.80;;;;;;2374269;56;21161;-49
2022/12/31 01:50:47;;;;;;;5.68;4.30;;;13.30;82.90;;;;;;2374319;56;21666;-49
2022/12/31 01:53:15;;;;;;;5.80;4.70;;;13.30;83.00;;;;;;2374730;56;21592;-48
2022/12/31 01:55:46;;;;;;;5.47;4.25;;;13.30;82.90;;;;;;2374783;56;21665;-51
2022/12/31 02:00:56;;;;;;;9.10;5.47;;;13.30;82.80;;;;;;2354294;57;22125;-53
2022/12/31 02:03:25;;;;;;;6.82;4.55;;;13.40;82.80;;;;;;2346726;57;22193;-50
2022/12/31 02:05:57;;;;;;;5.30;4.80;;;13.40;82.80;;;;;;2347334;57;21115;-49
2022/12/31 02:08:24;;;;;;;7.78;5.03;;;13.30;82.90;;;;;;2371156;56;21575;-50
2022/12/31 02:10:51;;;;;;;4.62;3.90;;;13.40;82.30;;;;;;2374477;56;21518;-51
2022/12/31 02:13:18;;;;;;;6.62;4.97;;;13.40;82.90;;;;;;2375027;56;21121;-49
2022/12/31 02:15:54;;;;;;;5.00;4.37;;;13.40;83.10;;;;;;2374565;56;21511;-52
2022/12/31 02:18:29;;;;;;;5.28;4.28;;;13.40;83.10;;;;;;2374432;56;21503;-50
2022/12/31 02:21:19;;;;;;;4.90;4.28;;;13.40;83.10;;;;;;2374590;56;21609;-51
2022/12/31 02:24:28;;;;;;;6.10;4.40;;;13.40;83.20;;;;;;2374915;56;22098;-48
2022/12/31 02:27:01;;;;;;;6.07;4.30;;;13.50;83.10;;;;;;2374929;56;21575;-50
2022/12/31 02:30:02;;;;;;;5.55;3.97;;;13.50;83.00;;;;;;2373281;56;21114;-50
2022/12/31 02:32:46;;;;;;;4.87;4.37;;;13.50;83.20;;;;;;2372733;56;21114;-48
2022/12/31 02:37:54;;;;;;;6.05;5.22;;;13.60;82.50;;;;;;2338546;57;22171;-48
2022/12/31 02:40:22;;;;;;;7.25;4.60;;;13.60;82.50;;;;;;2348395;57;21018;-48
2022/12/31 02:42:49;;;;;;;5.95;5.00;;;13.50;82.60;;;;;;2348314;57;21064;-49
2022/12/31 02:45:22;;;;;;;7.20;4.70;;;13.50;83.00;;;;;;2347756;57;21302;-50
2022/12/31 02:48:03;;;;;;;5.40;4.37;;;13.50;83.20;;;;;;2347647;57;21125;-49
2022/12/31 02:50:41;;;;;;;4.65;3.97;;;13.50;83.40;;;;;;2345640;57;21599;-49
2022/12/31 02:53:23;;;;;;;7.00;5.30;;;13.60;83.30;;;;;;2346930;57;21533;-47
2022/12/31 02:55:54;;;;;;;8.68;4.80;;;13.60;83.20;;;;;;2594573;53;21557;-50
2022/12/31 03:06:58;;;;;;;5.22;4.07;;;13.60;83.20;;;;;;2346278;57;21509;-50
2022/12/31 03:09:25;;;;;;;5.57;4.40;;;13.60;83.30;;;;;;2346560;57;21574;-49
2022/12/31 03:14:38;;;;;;;6.50;4.60;;;13.60;83.60;;;;;;2346798;57;21499;-49
2022/12/31 03:17:05;;;;;;;5.82;4.10;;;13.60;83.60;;;;;;2346531;57;21045;-47
2022/12/31 03:22:27;;;;;;;7.50;4.97;;;13.60;83.90;;;;;;2346837;57;21113;-53
2022/12/31 03:27:40;;;;;;;4.80;4.12;;;13.60;84.20;;;;;;2346589;57;21073;-53
2022/12/31 03:30:10;;;;;;;4.93;4.10;;;13.60;84.30;;;;;;2594450;53;21054;-50
2022/12/31 03:32:37;;;;;;;5.30;4.70;;;13.60;84.20;;;;;;2348078;57;21534;-48
2022/12/31 03:35:07;;;;;;;5.57;4.30;;;13.60;84.40;;;;;;2348069;57;21025;-47
2022/12/31 03:37:34;;;;;;;4.87;4.15;;;13.60;84.40;;;;;;2347090;57;21851;-47
2022/12/31 03:40:01;;;;;;;5.35;4.85;;;13.60;84.40;;;;;;2346440;57;21013;-46
2022/12/31 03:42:28;;;;;;;4.90;4.40;;;13.70;84.40;;;;;;2346473;57;21109;-49
2022/12/31 03:45:15;;;;;;;7.32;4.55;;;13.70;84.40;;;;;;2346476;57;21033;-51
2022/12/31 03:47:42;;;;;;;9.13;4.93;;;13.70;84.50;;;;;;2241475;60;21740;-50
2022/12/31 03:50:12;;;;;;;5.37;4.47;;;13.70;84.10;;;;;;2241219;60;21126;-50
2022/12/31 03:52:39;;;;;;;6.30;4.45;;;13.70;84.40;;;;;;2241922;60;21075;-52
2022/12/31 03:55:08;;;;;;;6.35;4.72;;;13.70;84.50;;;;;;2243577;59;21087;-50
2022/12/31 03:57:36;;;;;;;4.85;4.35;;;13.70;84.50;;;;;;2265760;59;21080;-51
2022/12/31 04:00:08;;;;;;;6.80;4.28;;;13.70;84.60;;;;;;2266059;59;21556;-52
2022/12/31 04:02:36;;;;;;;7.22;5.07;;;13.70;84.50;;;;;;2266476;59;21654;-52
2022/12/31 04:05:04;;;;;;;4.43;3.80;;;13.70;84.50;;;;;;2266200;59;21552;-54
2022/12/31 04:07:32;;;;;;;5.40;4.25;;;13.70;84.50;;;;;;2266156;59;22197;-51
2022/12/31 04:09:59;;;;;;;6.93;4.53;;;13.70;84.50;;;;;;2496600;55;21136;-51
2022/12/31 04:12:26;;;;;;;5.65;4.22;;;13.80;84.40;;;;;;2266070;59;21640;-49
2022/12/31 04:14:53;;;;;;;5.32;4.37;;;13.80;84.30;;;;;;2266536;59;21196;-53
2022/12/31 04:17:20;;;;;;;4.18;3.60;;;13.80;84.20;;;;;;2267304;59;21555;-54
2022/12/31 04:19:47;;;;;;;6.47;4.18;;;13.80;84.30;;;;;;2267894;59;21052;-53
2022/12/31 04:22:14;;;;;;;6.03;4.32;;;13.80;84.30;;;;;;2268233;59;21057;-50
2022/12/31 04:24:42;;;;;;;6.10;4.22;;;13.80;84.30;;;;;;2267613;59;21409;-50
2022/12/31 04:27:09;;;;;;;5.47;4.20;;;13.80;84.30;;;;;;2266402;59;21161;-53
2022/12/31 04:29:37;;;;;;;5.57;4.40;;;13.80;84.30;;;;;;2265473;59;21080;-50
2022/12/31 04:32:06;;;;;;;9.13;4.62;;;13.70;84.40;;;;;;2266026;59;21152;-51
2022/12/31 04:34:33;;;;;;;7.37;4.43;;;13.70;84.60;;;;;;2265745;59;21080;-50
2022/12/31 04:37:00;;;;;;;6.50;4.28;;;13.70;84.80;;;;;;2266429;59;21564;-52
2022/12/31 04:39:28;;;;;;;5.93;4.03;;;13.70;84.80;;;;;;2266352;59;21635;-54
2022/12/31 04:41:55;;;;;;;5.30;4.55;;;13.70;84.90;;;;;;2267128;59;21068;-52
2022/12/31 04:44:22;;;;;;;6.28;4.57;;;13.70;84.90;;;;;;2266920;59;21613;-53
2022/12/31 04:46:49;;;;;;;6.53;4.68;;;13.70;84.90;;;;;;2266059;59;21628;-52
2022/12/31 04:49:17;;;;;;;5.50;4.32;;;13.70;85.80;;;;;;2265183;59;21073;-54
2022/12/31 04:51:44;;;;;;;7.82;4.70;;;13.70;85.10;;;;;;2266544;59;21140;-53
2022/12/31 04:54:11;;;;;;;7.10;4.20;;;13.70;84.90;;;;;;2266213;59;21513;-54
2022/12/31 04:56:38;;;;;;;4.70;4.28;;;13.70;85.00;;;;;;2266307;59;22202;-51
2022/12/31 04:59:07;;;;;;;5.37;4.68;;;13.70;85.10;;;;;;2266231;59;21064;-51
2022/12/31 05:01:35;;;;;;;5.25;4.57;;;13.60;85.10;;;;;;2266396;59;21612;-50
2022/12/31 05:04:03;;;;;;;5.20;4.30;;;13.70;85.90;;;;;;2267587;59;21056;-51
2022/12/31 05:06:30;;;;;;;6.62;5.15;;;13.70;85.20;;;;;;2267314;59;21124;-49
2022/12/31 05:08:57;;;;;;;7.00;4.72;;;13.70;85.20;;;;;;2267182;59;21124;-53
2022/12/31 05:11:24;;;;;;;7.22;5.00;;;13.60;85.20;;;;;;2268000;59;21044;-50
2022/12/31 05:13:51;;;;;;;8.13;4.65;;;13.70;85.30;;;;;;2267636;59;21105;-52
2022/12/31 05:16:18;;;;;;;5.15;3.90;;;13.70;85.30;;;;;;2267413;59;21155;-52
2022/12/31 05:18:46;;;;;;;4.93;3.60;;;13.60;85.20;;;;;;2265696;59;21127;-50
2022/12/31 05:21:18;;;;;;;5.00;3.20;;;13.60;85.10;;;;;;2265903;59;21105;-53
2022/12/31 05:23:46;;;;;;;3.30;2.80;;;13.60;85.20;;;;;;2266950;59;21836;-50
2022/12/31 05:26:13;;;;;;;2.87;2.62;;;13.60;85.70;;;;;;2265498;59;21568;-53
2022/12/31 05:28:41;;;;;;;4.60;2.70;;;13.60;84.90;;;;;;2266209;59;21560;-52
2022/12/31 05:31:08;;;;;;;3.45;2.28;;;13.60;85.10;;;;;;2266556;59;21620;-51
2022/12/31 05:33:35;;;;;;;3.25;2.80;;;13.50;85.00;;;;;;2266664;59;21072;-51
2022/12/31 05:36:03;;;;;;;2.62;2.42;;;13.50;85.10;;;;;;2266687;59;21156;-53
2022/12/31 05:38:30;;;;;;;4.37;3.30;;;13.60;85.20;;;;;;2266355;59;21084;-50
2022/12/31 05:41:02;;;;;;;2.90;2.50;;;13.60;85.10;;;;;;2265743;59;21067;-52
2022/12/31 05:43:30;;;;;;;5.80;2.70;;;13.60;85.00;;;;;;2266721;59;21144;-50
2022/12/31 05:45:59;;;;;;;3.80;2.33;;;13.60;85.00;;;;;;2266154;59;21560;-53
2022/12/31 05:48:26;;;;;;;3.30;2.60;;;13.60;85.10;;;;;;2265954;59;22130;-50
2022/12/31 05:50:53;;;;;;;3.75;2.62;;;13.60;85.90;;;;;;2265584;59;21072;-52
2022/12/31 05:53:20;;;;;;;3.37;2.50;;;13.70;85.10;;;;;;2265850;59;21069;-53
2022/12/31 05:55:48;;;;;;;3.90;2.78;;;13.60;85.00;;;;;;2266123;59;21572;-51
2022/12/31 05:58:16;;;;;;;2.60;2.40;;;13.60;85.00;;;;;;2266267;59;21132;-51
2022/12/31 06:00:43;;;;;;;2.85;2.10;;;13.60;84.90;;;;;;2266395;59;22133;-50
2022/12/31 06:03:10;;;;;;;3.17;2.28;;;13.60;84.80;;;;;;2265571;59;21072;-52
2022/12/31 06:05:42;;;;;;;4.70;2.55;;;13.60;84.80;;;;;;2266473;59;21077;-50
2022/12/31 06:08:10;;;;;;;2.45;2.15;;;13.60;84.80;;;;;;2265115;59;21588;-53
2022/12/31 06:10:37;;;;;;;3.20;2.90;;;13.60;84.80;;;;;;2266490;59;21170;-50
2022/12/31 06:13:05;;;;;;;4.18;3.42;;;13.60;84.70;;;;;;2266019;59;21692;-52
2022/12/31 06:15:32;;;;;;;3.15;2.87;;;13.60;84.50;;;;;;2266659;59;21658;-50
2022/12/31 06:17:59;;;;;;;2.55;2.25;;;13.60;84.30;;;;;;2265516;59;21591;-54
2022/12/31 06:20:26;;;;;;;3.30;3.00;;;13.60;84.50;;;;;;2266107;59;22113;-50
2022/12/31 06:22:54;;;;;;;2.30;2.10;;;13.60;84.50;;;;;;2267080;59;21679;-50
2022/12/31 06:25:21;;;;;;;2.90;2.65;;;13.60;84.50;;;;;;2265842;59;21076;-52
2022/12/31 06:27:48;;;;;;;3.33;3.03;;;13.60;84.50;;;;;;2265853;59;21065;-52
2022/12/31 06:30:15;;;;;;;3.40;2.70;;;13.60;84.30;;;;;;2266569;59;21100;-53
2022/12/31 06:32:42;;;;;;;2.65;2.45;;;13.60;84.40;;;;;;2266434;59;21088;-53
2022/12/31 06:35:10;;;;;;;5.62;3.00;;;13.60;84.60;;;;;;2265871;59;21670;-52
2022/12/31 06:37:37;;;;;;;2.87;2.42;;;13.50;84.50;;;;;;2265143;59;21320;-50
2022/12/31 06:40:07;;;;;;;2.40;2.03;;;13.60;84.50;;;;;;2266097;59;21078;-50
2022/12/31 06:42:34;;;;;;;3.25;2.53;;;13.50;84.50;;;;;;2266467;59;21061;-52
2022/12/31 06:45:01;;;;;;;2.30;2.10;;;13.50;84.60;;;;;;2265629;59;21140;-51
2022/12/31 06:47:28;;;;;;;3.45;2.30;;;13.50;84.50;;;;;;2266138;59;21077;-54
2022/12/31 06:49:55;;;;;;;1.98;1.70;;;13.40;84.70;;;;;;2266065;59;21081;-50
2022/12/31 06:52:22;;;;;;;2.10;1.92;;;13.40;84.60;;;;;;2265866;59;21080;-51
2022/12/31 06:54:51;;;;;;;2.58;2.00;;;13.40;84.80;;;;;;2266258;59;21144;-50
2022/12/31 06:57:20;;;;;;;3.62;1.75;;;13.40;84.90;;;;;;2267018;59;21152;-49
2022/12/31 06:59:49;;;;;;;1.92;1.40;;;13.40;84.80;;;;;;2266210;59;21088;-52
2022/12/31 07:02:32;;;;;;;2.75;2.10;;;13.40;84.70;;;;;;2495332;55;21612;-53
2022/12/31 07:05:20;;;;;;;2.92;1.70;;;13.40;84.70;;;;;;2266732;59;21148;-53
2022/12/31 07:07:57;;;;;;;4.57;2.00;;;13.40;84.70;;;;;;2265538;59;21069;-52
2022/12/31 07:10:35;;;;;;;2.08;1.83;;;13.40;84.60;;;;;;2265981;59;21105;-51
2022/12/31 07:13:22;;;;;;;2.20;1.77;;;13.40;84.70;;;;;;2266864;59;21072;-50
2022/12/31 07:16:04;;;;;;;1.70;1.60;;;13.40;84.70;;;;;;2266831;59;21156;-54
2022/12/31 07:18:39;;;;;;;1.90;1.37;;;13.40;84.40;;;;;;2264027;59;21552;-54
2022/12/31 07:21:12;;;;;;;3.22;1.50;;;13.40;84.50;;;;;;2266341;59;21545;-54
2022/12/31 07:23:42;;;;;;;3.50;1.77;;;13.40;84.50;;;;;;2266510;59;21088;-49
2022/12/31 07:26:17;;;;;;;1.50;1.40;;;13.30;84.30;;;;;;2265468;59;21141;-52
2022/12/31 07:28:55;;;;;;;1.52;1.30;;;13.30;84.40;;;;;;2266488;59;21659;-54
2022/12/31 07:31:33;;;;;;;2.40;1.50;;;13.30;84.50;;;;;;2266242;59;21647;-51
2022/12/31 07:34:04;;;;;;;2.87;1.30;;;13.30;84.50;;;;;;2266610;59;21056;-53
2022/12/31 07:36:48;;;;;;;2.00;1.20;;;13.30;84.40;;;;;;2265516;59;21152;-52
2022/12/31 07:39:17;;;;;;;;;;;13.20;84.30;;;;;;2270237;59;21944;-51
2022/12/31 07:41:54;;;;;;;3.37;1.02;;;13.40;84.20;;;;;;2267801;59;20428;-51
2022/12/31 07:44:36;;;;;;;1.20;1.10;;;13.30;83.80;;;;;;2266427;59;21521;-50
2022/12/31 07:47:11;;;;;;;1.05;0.98;;;13.20;84.10;;;;;;2266631;59;21081;-53
2022/12/31 07:49:41;;;;;;;1.70;1.00;;;13.20;84.20;;;;;;2264973;59;21726;-53
2022/12/31 07:52:10;;;;;;;1.05;1.00;;;13.20;84.20;;;;;;2265818;59;22154;-52
2022/12/31 07:54:37;;;;;;;4.10;1.00;;;13.20;84.40;;;;;;2266103;59;21588;-49
2022/12/31 07:57:05;;;;;;;1.02;0.93;;;13.10;84.50;;;;;;2266068;59;21085;-53
2022/12/31 08:02:22;;;;;;;1.45;0.90;;;13.10;84.70;;;;;;2353273;57;22656;-51
2022/12/31 08:04:58;;;;;;;0.93;0.93;;;13.10;84.60;;;;;;2344930;57;21105;-49
2022/12/31 08:07:35;;;;;;;1.52;0.90;;;13.10;84.70;;;;;;2317854;58;21071;-53
2022/12/31 08:10:09;;;;;;;1.10;0.88;;;13.10;84.60;;;;;;2316458;58;21068;-53
2022/12/31 08:12:36;;;;;;;;;;;13.10;84.80;;;;;;2321872;58;21615;-51
2022/12/31 08:15:13;;;;;;;1.45;1.00;;;13.20;84.60;;;;;;2336170;53;20044;-60
2022/12/31 08:17:41;;;;;;;2.60;1.20;;;13.10;84.30;;;;;;2319435;58;21167;-60
2022/12/31 08:20:14;;;;;;;1.90;1.20;;;13.10;84.50;;;;;;2316779;58;21649;-62
2022/12/31 08:23:06;;;;;;;2.17;1.20;;;13.10;84.70;;;;;;2320775;58;21032;-61
2022/12/31 08:25:43;;;;;;;1.95;1.15;;;13.10;84.60;;;;;;2334959;57;21083;-60
2022/12/31 08:28:16;;;;;;;3.05;1.25;;;13.10;84.70;;;;;;2358401;57;21025;-60
2022/12/31 08:30:56;;;;;;;1.08;0.90;;;13.10;84.80;;;;;;2357470;57;21620;-60
2022/12/31 08:33:28;;;;;;;4.35;1.10;;;13.10;85.50;;;;;;2357699;57;21041;-60
2022/12/31 08:36:08;;;;;;;3.25;1.00;;;13.10;84.70;;;;;;2356326;57;21057;-60
2022/12/31 08:38:43;;;;;;;1.37;1.10;;;13.10;84.80;;;;;;2356344;57;21506;-62
2022/12/31 08:41:20;;;;;;;1.15;1.05;;;13.20;84.70;;;;;;2355646;57;21041;-61
2022/12/31 08:44:00;;;;;;;2.22;1.20;;;13.10;84.70;;;;;;2355481;57;21531;-62
2022/12/31 08:46:33;;;;;;;2.28;1.10;;;13.10;84.70;;;;;;2354229;57;21108;-62
2022/12/31 08:49:02;;;;;;;1.75;1.30;;;13.20;84.80;;;;;;2357103;57;21109;-62
2022/12/31 08:51:30;;;;;;;2.10;1.10;;;13.20;84.90;;;;;;2356243;57;21124;-59
2022/12/31 08:53:58;;;;;;;1.62;1.45;;;13.20;85.20;;;;;;2536383;53;21132;-62
2022/12/31 08:56:31;;;;;;;1.50;1.30;;;13.20;85.40;;;;;;2355609;57;21576;-61
2022/12/31 08:59:09;;;;;;;2.20;1.73;;;13.20;85.40;;;;;;2356663;57;21057;-61
2022/12/31 09:02:07;;;;;;;2.53;1.40;;;13.20;85.30;;;;;;2355217;57;21052;-62
2022/12/31 09:04:51;;;;;;;2.80;1.50;;;13.30;85.40;;;;;;2355455;57;21730;-60
2022/12/31 09:07:22;;;;;;;1.95;1.58;;;13.30;85.40;;;;;;2354786;57;21624;-62
2022/12/31 09:09:59;;;;;;;3.03;1.40;;;13.30;85.40;;;;;;2356217;57;21340;-61
2022/12/31 09:12:34;;;;;;;2.95;1.98;;;13.30;85.60;;;;;;2354884;57;21060;-62
2022/12/31 09:17:44;;;;;;;1.48;1.37;;;13.40;85.60;;;;;;2354110;57;20084;-62
2022/12/31 09:20:23;;;;;;;1.55;1.40;;;13.40;85.90;;;;;;2345820;57;21791;-60
2022/12/31 09:22:53;;;;;;;4.05;1.77;;;13.40;86.00;;;;;;2347343;57;21088;-61
2022/12/31 09:25:22;;;;;;;1.55;1.30;;;13.40;86.00;;;;;;2605691;52;21126;-60
2022/12/31 09:28:09;;;;;;;1.50;1.40;;;13.40;85.90;;;;;;2374530;56;21109;-60
2022/12/31 09:30:45;;;;;;;1.50;1.40;;;13.50;85.90;;;;;;2372775;56;22105;-60
2022/12/31 09:33:25;;;;;;;1.83;1.73;;;13.50;85.80;;;;;;2373450;56;21058;-60
2022/12/31 09:35:55;;;;;;;3.28;1.85;;;13.50;85.70;;;;;;2373515;56;21054;-58
2022/12/31 09:38:26;;;;;;;2.47;1.65;;;13.50;85.60;;;;;;2372835;56;21543;-59
2022/12/31 09:41:12;;;;;;;2.00;1.85;;;13.50;85.50;;;;;;2373257;56;21086;-56
2022/12/31 09:44:27;;;;;;;2.40;1.60;;;13.50;85.60;;;;;;2373356;56;21658;-58
2022/12/31 09:47:37;;;;;;;1.50;1.40;;;13.60;85.40;;;;;;2441233;52;21539;-58
2022/12/31 09:50:34;;;;;;;1.83;1.70;;;13.60;85.00;;;;;;2360385;56;22209;-58
2022/12/31 09:53:45;;;;;;;3.58;1.98;;;13.60;85.10;;;;;;2373864;56;21050;-58
2022/12/31 09:56:22;;;;;;;2.40;1.95;;;13.50;85.20;;;;;;2373308;56;21164;-56
2022/12/31 09:58:59;;;;;;;3.30;1.98;;;13.50;85.00;;;;;;2373920;56;21101;-59
2022/12/31 10:01:39;;;;;;;2.58;2.05;;;13.50;85.20;;;;;;2372382;56;22174;-59
2022/12/31 10:04:34;;;;;;;2.60;2.03;;;13.60;85.30;;;;;;2375131;56;21102;-59
2022/12/31 10:07:09;;;;;;;2.45;2.05;;;13.60;85.40;;;;;;2375548;56;21014;-58
2022/12/31 10:12:58;;;;;;;3.20;2.20;;;13.60;85.20;;;;;;2354372;57;22070;-58
2022/12/31 10:15:48;;;;;;;3.33;1.87;;;13.60;85.10;;;;;;2356410;56;21156;-58
2022/12/31 10:18:30;;;;;;;4.55;2.70;;;13.60;84.70;;;;;;2374062;56;21114;-58
2022/12/31 10:21:11;;;;;;;2.58;2.37;;;13.60;84.90;;;;;;2374107;56;21039;-59
2022/12/31 10:23:54;;;;;;;2.45;2.25;;;13.60;85.10;;;;;;2374035;56;21102;-60
2022/12/31 10:26:35;;;;;;;2.17;1.77;;;13.60;85.30;;;;;;2372907;56;21074;-60
2022/12/31 10:29:14;;;;;;;2.35;1.50;;;13.60;85.20;;;;;;2373300;56;21534;-60
2022/12/31 10:31:50;;;;;;;1.75;1.62;;;13.60;85.20;;;;;;2373830;56;21118;-59
2022/12/31 10:34:29;;;;;;;2.37;1.70;;;13.70;85.10;;;;;;2601723;52;22171;-61
2022/12/31 10:37:05;;;;;;;1.67;1.58;;;13.70;85.20;;;;;;2373703;56;21043;-60
2022/12/31 10:42:59;;;;;;;1.87;1.50;;;13.70;85.40;;;;;;2353150;57;22082;-59
2022/12/31 10:46:05;;;;;;;2.05;1.27;;;13.70;85.30;;;;;;2355842;56;21051;-59
2022/12/31 10:48:56;;;;;;;1.27;1.15;;;13.70;85.40;;;;;;2371706;56;23063;-58
2022/12/31 10:52:09;;;;;;;1.70;1.17;;;13.70;85.60;;;;;;2373398;56;21343;-61
2022/12/31 10:55:02;;;;;;;1.60;1.10;;;13.60;85.60;;;;;;2373784;56;21531;-58
2022/12/31 10:57:57;;;;;;;1.27;0.97;;;13.60;85.40;;;;;;2374079;56;21507;-60
2022/12/31 11:00:28;;;;;;;1.35;1.20;;;13.60;85.70;;;;;;2374937;56;21023;-57
2022/12/31 11:03:46;;;;;;;0.90;0.90;;;13.60;85.90;;;;;;2375283;56;21066;-58
2022/12/31 11:07:03;;;;;;;1.48;1.37;;;13.60;86.30;;;;;;2374528;56;21499;-59
2022/12/31 11:10:33;;;;;;;0.80;0.80;;;13.70;87.10;;;;;;2375117;52;21051;-57
2022/12/31 11:13:38;;;;;;;2.65;1.58;;;13.70;86.30;;;;;;2272723;59;21150;-58
2022/12/31 11:16:25;;;;;;;3.30;2.10;;;13.70;86.10;;;;;;2373227;56;21693;-56
2022/12/31 11:19:00;;;;;;;3.28;1.52;;;13.70;86.10;;;;;;2372364;56;21401;-57
2022/12/31 11:21:58;;;;;;;2.05;1.30;;;13.70;86.40;;;;;;2435901;52;21590;-60
2022/12/31 11:24:41;;;;;;;1.37;1.20;;;13.70;86.30;;;;;;2373975;56;21043;-59
2022/12/31 11:27:22;;;;;;;2.10;1.35;;;13.70;86.30;;;;;;2374054;56;21550;-59
2022/12/31 11:30:03;;;;;;;2.25;1.30;;;13.80;86.50;;;;;;2373414;56;21567;-60
2022/12/31 11:32:49;;;;;;;2.35;1.62;;;13.90;86.70;;;;;;2373714;56;21103;-59
2022/12/31 11:35:27;;;;;;;1.92;1.30;;;13.80;86.60;;;;;;2372546;56;21119;-60
2022/12/31 11:38:03;;;;;;;1.67;1.27;;;13.90;86.70;;;;;;2400411;52;21538;-60
2022/12/31 11:40:49;;;;;;;1.25;1.15;;;13.90;87.00;;;;;;2373567;56;21067;-57
2022/12/31 11:43:29;;;;;;;3.25;1.50;;;14.00;87.00;;;;;;2373891;56;21153;-58
2022/12/31 11:49:29;;;;;;;3.72;1.42;;;14.00;86.80;;;;;;2354563;57;22054;-56
2022/12/31 11:52:16;;;;;;;2.80;2.00;;;14.00;86.60;;;;;;2371309;53;21065;-58
2022/12/31 11:55:00;;;;;;;1.77;1.48;;;14.10;87.00;;;;;;2347680;56;22665;-59
2022/12/31 11:57:33;;;;;;;7.78;2.47;;;14.10;87.20;;;;;;2373788;56;21613;-59
2022/12/31 12:00:05;;;;;;;3.53;1.60;;;14.10;87.10;;;;;;2374128;56;22133;-60
2022/12/31 12:02:35;;;;;;;1.77;1.60;;;14.20;87.20;;;;;;2373260;56;21952;-59
2022/12/31 12:05:06;;;;;;;3.58;1.00;;;14.20;87.20;;;;;;2373832;56;21535;-60
2022/12/31 12:07:33;;;;;;;1.40;1.30;;;14.30;87.10;;;;;;2390710;52;21066;-57
2022/12/31 12:10:15;;;;;;;1.35;1.25;;;14.30;87.40;;;;;;2372660;56;21039;-59
2022/12/31 12:12:43;;;;;;;1.20;1.10;;;14.30;87.60;;;;;;2451505;52;21134;-57
2022/12/31 12:15:17;;;;;;;2.17;1.08;;;14.30;87.50;;;;;;2374588;56;21047;-59
2022/12/31 12:17:48;;;;;;;1.58;1.08;;;14.30;87.60;;;;;;2373885;56;21043;-61
2022/12/31 12:20:20;;;;;;;2.87;1.00;;;14.40;88.40;;;;;;2373144;56;21055;-57
2022/12/31 12:22:55;;;;;;;1.25;0.90;;;14.40;87.60;;;;;;2374082;56;21063;-57
2022/12/31 12:25:24;;;;;;;1.05;0.95;;;14.40;87.40;;;;;;2371490;56;21031;-58
2022/12/31 12:27:51;;;;;;;0.82;0.82;;;14.50;87.10;;;;;;2373450;56;21661;-56
2022/12/31 12:30:22;;;;;;;1.30;0.80;;;14.50;87.20;;;;;;2373587;56;21943;-56
2022/12/31 12:32:55;;;;;;;2.37;0.85;;;14.50;86.70;;;;;;2374664;56;21177;-58
2022/12/31 12:35:28;;;;;;;1.10;0.90;;;14.60;86.70;;;;;;2374832;56;21031;-55
2022/12/31 12:38:03;;;;;;;0.70;0.70;;;14.60;86.90;;;;;;2375023;56;21019;-59
2022/12/31 12:40:31;;;;;;;1.12;0.85;;;14.60;86.50;;;;;;2375306;56;21066;-56
2022/12/31 12:42:58;;;;;;;1.45;0.98;;;14.70;86.50;;;;;;2373097;56;21182;-59
2022/12/31 12:45:29;;;;;;;2.03;0.95;;;14.70;86.30;;;;;;2373556;56;21614;-57
2022/12/31 12:47:58;;;;;;;2.33;0.98;;;14.70;86.00;;;;;;2373371;56;21043;-58
2022/12/31 12:50:35;;;;;;;2.67;1.00;;;14.70;85.70;;;;;;2373260;56;21035;-54
2022/12/31 12:53:33;;;;;;;1.10;0.93;;;14.70;85.70;;;;;;2373579;56;21094;-59
2022/12/31 12:56:11;;;;;;;0.98;0.98;;;14.70;85.80;;;;;;2373406;56;21606;-58
2022/12/31 12:58:52;;;;;;;0.98;0.77;;;14.70;85.80;;;;;;2371573;56;21527;-58
2022/12/31 13:01:27;;;;;;;1.40;0.95;;;14.70;85.60;;;;;;2372923;56;21476;-58
2022/12/31 13:04:21;;;;;;;1.23;0.77;;;14.80;85.90;;;;;;2373256;56;21621;-57
2022/12/31 13:07:15;;;;;;;2.15;0.88;;;14.80;85.30;;;;;;2373286;56;21401;-57
2022/12/31 13:09:53;;;;;;;0.98;0.85;;;14.80;85.10;;;;;;2372475;56;21229;-56
2022/12/31 13:12:27;;;;;;;2.40;1.05;;;14.80;85.10;;;;;;2372504;56;21058;-59
2022/12/31 13:15:01;;;;;;;1.00;0.90;;;14.80;85.10;;;;;;2373111;56;21090;-55
2022/12/31 13:17:43;;;;;;;2.65;1.10;;;14.80;84.90;;;;;;2371092;56;21042;-58
2022/12/31 13:20:18;;;;;;;1.37;1.00;;;14.80;84.70;;;;;;2372994;56;21090;-56
2022/12/31 13:22:51;;;;;;;4.68;1.00;;;14.90;84.70;;;;;;2372714;56;21090;-57
2022/12/31 13:25:25;;;;;;;1.00;0.93;;;14.90;84.50;;;;;;2373904;56;21594;-55
2022/12/31 13:27:56;;;;;;;1.08;0.95;;;14.90;84.40;;;;;;2374245;56;21027;-52
2022/12/31 13:30:28;;;;;;;1.23;0.90;;;15.00;84.50;;;;;;2374513;56;21082;-56
2022/12/31 13:33:00;;;;;;;0.80;0.73;;;15.00;84.40;;;;;;2372967;56;21027;-59
2022/12/31 13:35:31;;;;;;;2.00;1.25;;;15.00;84.60;;;;;;2373302;56;21125;-56
2022/12/31 13:38:03;;;;;;;1.08;0.90;;;15.00;84.20;;;;;;2373140;56;21676;-58
2022/12/31 13:43:19;;;;;;;1.37;1.10;;;15.10;84.40;;;;;;2354537;57;22021;-57
2022/12/31 13:45:51;;;;;;;1.10;1.00;;;15.10;84.20;;;;;;2360139;56;21134;-57
2022/12/31 13:48:29;;;;;;;1.12;0.90;;;15.10;84.40;;;;;;2374195;56;21512;-59
2022/12/31 13:53:46;;;;;;;0.93;0.93;;;15.10;84.50;;;;;;2327707;57;22091;-56
2022/12/31 13:56:17;;;;;;;1.42;1.27;;;15.20;84.50;;;;;;2362528;56;21653;-54
2022/12/31 13:58:48;;;;;;;1.75;0.90;;;15.20;84.20;;;;;;2401360;52;21035;-58
2022/12/31 14:01:19;;;;;;;1.00;0.90;;;15.20;84.20;;;;;;2369387;56;21542;-57
2022/12/31 14:03:53;;;;;;;1.10;1.00;;;15.20;84.50;;;;;;2369069;56;21574;-59
2022/12/31 14:08:58;;;;;;;1.48;1.15;;;15.20;84.50;;;;;;2354795;57;22129;-57
2022/12/31 14:11:43;;;;;;;1.23;0.90;;;15.30;84.40;;;;;;2346048;57;21073;-58